KCDS/CDS METAR and TAF weather

Enter ICAO airport designator
Station Type Date Time Source
KCDS METAR 2020/08/15 10:53 UTC NOAA

KCDS 151053Z AUTO 06007KT 10SM CLR 26/22 A2996 RMK AO2 SLP112 T02610217


Station Type Date Time Source
KCDS Decoded METAR 2020/08/15 10:53 UTC NOAA

CHILDRESS MUNICIPAL AIRPORT, TX, United States (KCDS) 34-26N 100-17W 594M
Aug 15, 2020 - 06:53 AM EDT / 2020.08.15 1053 UTC
Wind: from the ENE (060 degrees) at 8 MPH (7 KT):0
Visibility: 10 mile(s):0
Sky conditions: clear
Temperature: 79.0 F (26.1 C)
Dew Point: 71.1 F (21.7 C)
Relative Humidity: 76%
Pressure (altimeter): 29.96 in. Hg (1014 hPa)
ob: KCDS 151053Z AUTO 06007KT 10SM CLR 26/22 A2996 RMK AO2 SLP112 T02610217
cycle: 11

Station Type Date Time Source
KCDS TAF 2020/08/15 06:22 UTC NOAA

TAF KCDS 150520Z 1506/1606 01011KT P6SM BKN110
FM151900 12011KT P6SM FEW110

Example: see airport list